Time;durP1;ratioP1;P1;durP2;ratioP2;P2;SDS_P1;SDS_P2;PMS_P1;PMS_P2;Temp;Humidity;BMP_temperature;BMP_pressure;BME280_temperature;BME280_humidity;BME280_pressure;Samples;Min_cycle;Max_cycle;Signal;HPM_P1;HPM_P2
2022/04/09 00:00:34;;;;;;;0.80;0.60;;;;;;;;;;10435917;28;20049;-72
2022/04/09 00:05:37;;;;;;;1.23;0.60;;;;;;;;;;10448661;28;20048;-72
2022/04/09 00:10:41;;;;;;;1.52;0.57;;;;;;;;;;10453249;28;20044;-72
2022/04/09 00:15:45;;;;;;;1.10;0.47;;;;;;;;;;10436924;28;20029;-73
2022/04/09 00:20:49;;;;;;;1.52;0.50;;;;;;;;;;10432951;28;20468;-73
2022/04/09 00:25:53;;;;;;;0.50;0.35;;;;;;;;;;10436599;28;20037;-73
2022/04/09 00:30:57;;;;;;;2.35;0.75;;;;;;;;;;10437509;28;20079;-73
2022/04/09 00:36:00;;;;;;;0.97;0.43;;;;;;;;;;10430501;28;20608;-71
2022/04/09 00:41:04;;;;;;;1.17;0.80;;;;;;;;;;10431961;28;20409;-73
2022/04/09 00:46:08;;;;;;;0.98;0.68;;;;;;;;;;10430729;28;20056;-72
2022/04/09 00:51:11;;;;;;;3.92;0.75;;;;;;;;;;10456759;28;20092;-73
2022/04/09 00:56:17;;;;;;;1.75;0.47;;;;;;;;;;10434507;28;20040;-71
2022/04/09 01:01:20;;;;;;;1.52;0.65;;;;;;;;;;10429940;28;20048;-72
2022/04/09 01:06:23;;;;;;;1.40;0.60;;;;;;;;;;10431045;28;20049;-72
2022/04/09 01:11:28;;;;;;;0.60;0.47;;;;;;;;;;10450685;28;20071;-71
2022/04/09 01:16:31;;;;;;;0.47;0.25;;;;;;;;;;10431524;28;20079;-72
2022/04/09 01:21:34;;;;;;;0.10;0.10;;;;;;;;;;10429736;28;20036;-71
2022/04/09 01:26:38;;;;;;;0.55;0.10;;;;;;;;;;10429017;28;20099;-71
2022/04/09 01:31:42;;;;;;;0.00;0.00;;;;;;;;;;10431952;28;20045;-72
2022/04/09 01:36:46;;;;;;;0.13;0.00;;;;;;;;;;10431885;28;20044;-71
2022/04/09 01:41:50;;;;;;;0.00;0.00;;;;;;;;;;10432079;28;20097;-71
2022/04/09 01:46:54;;;;;;;0.00;0.00;;;;;;;;;;10431902;28;20034;-71
2022/04/09 01:51:57;;;;;;;0.45;0.10;;;;;;;;;;10425612;28;20061;-71
2022/04/09 01:57:01;;;;;;;0.10;0.10;;;;;;;;;;10427654;28;20103;-72
2022/04/09 02:02:04;;;;;;;0.10;0.10;;;;;;;;;;10428043;28;20029;-71
2022/04/09 02:07:07;;;;;;;0.10;0.10;;;;;;;;;;10431049;28;20086;-72
2022/04/09 02:12:11;;;;;;;0.00;0.00;;;;;;;;;;10424974;28;20065;-72
2022/04/09 02:17:14;;;;;;;0.00;0.00;;;;;;;;;;10424783;28;20033;-72
2022/04/09 02:22:23;;;;;;;0.00;0.00;;;;;;;;;;10425259;28;20033;-72
2022/04/09 02:27:28;;;;;;;0.00;0.00;;;;;;;;;;10434616;28;20509;-72
2022/04/09 02:32:41;;;;;;;0.13;0.13;;;;;;;;;;10448974;28;20034;-71
2022/04/09 02:37:45;;;;;;;0.00;0.00;;;;;;;;;;10435084;28;20038;-70
2022/04/09 02:42:50;;;;;;;0.10;0.10;;;;;;;;;;10446267;28;20136;-71
2022/04/09 02:47:53;;;;;;;0.07;0.07;;;;;;;;;;10429791;28;20319;-71
2022/04/09 02:52:56;;;;;;;0.30;0.20;;;;;;;;;;10426591;28;20133;-71
2022/04/09 02:58:01;;;;;;;0.28;0.28;;;;;;;;;;10431645;28;20072;-72
2022/04/09 03:03:04;;;;;;;;;;;;;;;;;;10431308;28;20128;-71
2022/04/09 03:08:07;;;;;;;0.47;0.40;;;;;;;;;;10426185;28;19931;-71
2022/04/09 03:13:12;;;;;;;0.30;0.30;;;;;;;;;;10433083;28;20041;-72
2022/04/09 03:18:16;;;;;;;0.70;0.67;;;;;;;;;;10425018;28;20440;-72
2022/04/09 03:23:19;;;;;;;0.77;0.60;;;;;;;;;;10432727;28;20449;-71
2022/04/09 03:28:23;;;;;;;0.20;0.20;;;;;;;;;;10430388;22;20045;-74
2022/04/09 03:33:26;;;;;;;;;;;;;;;;;;10396331;28;20053;-74
2022/04/09 03:38:28;;;;;;;0.50;0.37;;;;;;;;;;10403780;28;19941;-73
2022/04/09 03:43:33;;;;;;;0.40;0.27;;;;;;;;;;10404693;28;20037;-75
2022/04/09 03:48:35;;;;;;;;;;;;;;;;;;10408391;28;20041;-75
2022/04/09 03:53:38;;;;;;;0.60;0.50;;;;;;;;;;10385105;28;19925;-76
2022/04/09 03:58:43;;;;;;;1.20;0.83;;;;;;;;;;10391947;28;20144;-74
2022/04/09 04:03:46;;;;;;;1.43;0.57;;;;;;;;;;10403008;28;20030;-73
2022/04/09 04:08:48;;;;;;;1.27;1.00;;;;;;;;;;10388057;28;20049;-75
2022/04/09 04:13:53;;;;;;;2.03;1.23;;;;;;;;;;10403876;28;20041;-76
2022/04/09 04:18:55;;;;;;;;;;;;;;;;;;10405257;28;20414;-73
2022/04/09 04:23:58;;;;;;;0.60;0.60;;;;;;;;;;10404862;28;19965;-73
2022/04/09 04:29:02;;;;;;;0.83;0.70;;;;;;;;;;10388268;28;20065;-73
2022/04/09 04:34:06;;;;;;;0.83;0.73;;;;;;;;;;10383228;28;20119;-76
2022/04/09 04:39:09;;;;;;;1.50;1.03;;;;;;;;;;10385211;28;20507;-74
2022/04/09 04:44:13;;;;;;;2.47;1.23;;;;;;;;;;10388369;28;20041;-75
2022/04/09 04:49:16;;;;;;;1.17;0.77;;;;;;;;;;10380713;28;20116;-75
2022/04/09 04:54:19;;;;;;;1.13;0.63;;;;;;;;;;10384959;28;20044;-74
2022/04/09 04:59:23;;;;;;;2.20;1.47;;;;;;;;;;10400150;28;20045;-76
2022/04/09 05:04:26;;;;;;;2.17;1.20;;;;;;;;;;10399205;28;20080;-74
2022/04/09 05:09:29;;;;;;;1.87;0.77;;;;;;;;;;10383969;28;20037;-74
2022/04/09 05:14:33;;;;;;;2.33;1.40;;;;;;;;;;10399780;28;20037;-74
2022/04/09 05:19:36;;;;;;;;;;;;;;;;;;10386765;28;20042;-75
2022/04/09 05:24:38;;;;;;;2.93;1.40;;;;;;;;;;10397686;28;20044;-76
2022/04/09 05:29:43;;;;;;;2.60;1.27;;;;;;;;;;10382352;28;20045;-73
2022/04/09 05:34:46;;;;;;;1.93;0.80;;;;;;;;;;10399898;28;20060;-78
2022/04/09 05:39:50;;;;;;;4.53;1.92;;;;;;;;;;10395475;28;20033;-75
2022/04/09 05:44:54;;;;;;;5.50;1.87;;;;;;;;;;10403291;28;20045;-75
2022/04/09 05:49:58;;;;;;;4.93;2.10;;;;;;;;;;10390980;28;20307;-73
2022/04/09 05:55:03;;;;;;;3.10;1.70;;;;;;;;;;10381209;28;20061;-72
2022/04/09 06:00:09;;;;;;;3.57;1.67;;;;;;;;;;10380224;28;20053;-74
2022/04/09 06:05:12;;;;;;;4.00;2.20;;;;;;;;;;10383658;28;20037;-73
2022/04/09 06:10:15;;;;;;;3.33;1.20;;;;;;;;;;10380047;28;20045;-74
2022/04/09 06:15:19;;;;;;;3.13;1.40;;;;;;;;;;10383599;28;20045;-74
2022/04/09 06:20:22;;;;;;;;;;;;;;;;;;10396797;28;20037;-75
2022/04/09 06:25:25;;;;;;;7.17;4.23;;;;;;;;;;10398639;28;20023;-74
2022/04/09 06:30:29;;;;;;;8.17;2.67;;;;;;;;;;10401739;28;20570;-74
2022/04/09 06:35:32;;;;;;;3.20;1.60;;;;;;;;;;10408361;28;20428;-74
2022/04/09 06:40:34;;;;;;;6.00;3.00;;;;;;;;;;10402459;28;20044;-75
2022/04/09 06:45:39;;;;;;;5.50;2.80;;;;;;;;;;10396335;28;20080;-75
2022/04/09 06:50:42;;;;;;;1.77;1.38;;;;;;;;;;10402354;28;20038;-76
2022/04/09 06:55:44;;;;;;;5.70;2.40;;;;;;;;;;10403554;28;20072;-73
2022/04/09 07:00:49;;;;;;;3.65;1.73;;;;;;;;;;10404078;28;20575;-75
2022/04/09 07:05:53;;;;;;;3.70;1.40;;;;;;;;;;10406872;28;20110;-75
2022/04/09 07:10:56;;;;;;;3.53;1.73;;;;;;;;;;10389560;28;20040;-75
2022/04/09 07:16:00;;;;;;;3.53;1.90;;;;;;;;;;10392093;28;20095;-72
2022/04/09 07:21:10;;;;;;;3.03;1.83;;;;;;;;;;10402520;28;20040;-74
2022/04/09 07:26:13;;;;;;;3.20;1.50;;;;;;;;;;10403602;28;20140;-75
2022/04/09 07:31:17;;;;;;;3.03;1.90;;;;;;;;;;10400624;28;20559;-74
2022/04/09 07:36:21;;;;;;;7.20;3.50;;;;;;;;;;10410469;28;20037;-74
2022/04/09 07:41:24;;;;;;;4.40;2.20;;;;;;;;;;10387078;28;20498;-74
2022/04/09 07:46:29;;;;;;;7.00;3.00;;;;;;;;;;10390587;28;20044;-73
2022/04/09 07:51:34;;;;;;;4.38;2.83;;;;;;;;;;10406359;28;20213;-73
2022/04/09 07:56:37;;;;;;;2.70;1.60;;;;;;;;;;10402357;28;20040;-74
2022/04/09 08:01:41;;;;;;;7.88;4.75;;;;;;;;;;10410191;28;20034;-75
2022/04/09 08:06:44;;;;;;;5.60;2.78;;;;;;;;;;10395807;28;20045;-73
2022/04/09 08:11:47;;;;;;;8.13;4.35;;;;;;;;;;10399850;28;20499;-74
2022/04/09 08:16:52;;;;;;;6.53;2.97;;;;;;;;;;10404633;28;20389;-73
2022/04/09 08:21:57;;;;;;;7.80;3.53;;;;;;;;;;10400862;28;20037;-76
2022/04/09 08:27:00;;;;;;;6.38;3.80;;;;;;;;;;10387698;28;20069;-77
2022/04/09 08:32:05;;;;;;;5.80;3.60;;;;;;;;;;10400788;28;20041;-69
2022/04/09 08:37:08;;;;;;;6.93;3.78;;;;;;;;;;10400517;28;20041;-68
2022/04/09 08:42:12;;;;;;;5.57;3.23;;;;;;;;;;10402013;28;20428;-70
2022/04/09 08:47:40;;;;;;;4.70;2.72;;;;;;;;;;10394708;28;20295;-69
2022/04/09 08:52:44;;;;;;;6.00;2.63;;;;;;;;;;10398834;28;21681;-69
2022/04/09 08:57:48;;;;;;;;;;;;;;;;;;10407153;28;20116;-69
2022/04/09 09:02:51;;;;;;;;;;;;;;;;;;10399694;28;20377;-67
2022/04/09 09:07:55;;;;;;;3.83;2.00;;;;;;;;;;10398122;28;19998;-70
2022/04/09 09:12:59;;;;;;;1.67;1.45;;;;;;;;;;10399761;28;20403;-69
2022/04/09 09:18:05;;;;;;;3.28;1.88;;;;;;;;;;10394893;28;20037;-68
2022/04/09 09:23:19;;;;;;;3.40;2.33;;;;;;;;;;10396986;28;20049;-68
2022/04/09 09:28:23;;;;;;;4.72;2.03;;;;;;;;;;10397909;28;20052;-69
2022/04/09 09:33:26;;;;;;;1.40;0.88;;;;;;;;;;10387736;28;20056;-69
2022/04/09 09:38:49;;;;;;;;;;;;;;;;;;10396062;28;20042;-67
2022/04/09 09:44:03;;;;;;;3.03;1.50;;;;;;;;;;10397195;28;19932;-69
2022/04/09 09:49:07;;;;;;;6.10;1.88;;;;;;;;;;10368404;28;20033;-69
2022/04/09 09:54:11;;;;;;;1.73;1.40;;;;;;;;;;10396842;28;20069;-68
2022/04/09 09:59:13;;;;;;;;;;;;;;;;;;10396095;28;20046;-70
2022/04/09 10:04:18;;;;;;;2.25;1.63;;;;;;;;;;10378600;28;19943;-70
2022/04/09 10:09:23;;;;;;;5.55;2.10;;;;;;;;;;10393333;28;20055;-68
2022/04/09 10:14:27;;;;;;;1.05;0.95;;;;;;;;;;10397356;28;20073;-68
2022/04/09 10:19:32;;;;;;;9.27;2.75;;;;;;;;;;10379270;28;20103;-69
2022/04/09 10:24:35;;;;;;;3.38;2.20;;;;;;;;;;10377811;28;20053;-69
2022/04/09 10:29:48;;;;;;;3.08;1.90;;;;;;;;;;10397909;28;20470;-69
2022/04/09 10:34:55;;;;;;;3.50;2.35;;;;;;;;;;10409457;28;20033;-67
2022/04/09 10:40:04;;;;;;;2.75;1.98;;;;;;;;;;10387665;28;20064;-70
2022/04/09 10:45:07;;;;;;;3.70;1.95;;;;;;;;;;10407048;28;20083;-68
2022/04/09 10:50:12;;;;;;;3.58;2.15;;;;;;;;;;10405252;28;20075;-69
2022/04/09 10:55:24;;;;;;;3.85;1.88;;;;;;;;;;10404286;28;20099;-69
2022/04/09 11:00:31;;;;;;;4.53;2.70;;;;;;;;;;10388316;28;20506;-69
2022/04/09 11:05:39;;;;;;;2.75;1.27;;;;;;;;;;10406965;28;20045;-70
2022/04/09 11:10:42;;;;;;;3.25;2.05;;;;;;;;;;10407974;28;20033;-69
2022/04/09 11:15:54;;;;;;;2.72;1.50;;;;;;;;;;10407501;28;20042;-69
2022/04/09 11:21:00;;;;;;;1.77;1.45;;;;;;;;;;10383217;28;20524;-70
2022/04/09 11:26:03;;;;;;;3.10;1.75;;;;;;;;;;10397355;28;20042;-69
2022/04/09 11:31:07;;;;;;;5.20;1.70;;;;;;;;;;10397630;28;20037;-67
2022/04/09 11:36:11;;;;;;;3.53;2.03;;;;;;;;;;10401528;28;20128;-69
2022/04/09 11:41:19;;;;;;;4.63;1.52;;;;;;;;;;10402218;28;20572;-69
2022/04/09 11:46:23;;;;;;;3.08;1.27;;;;;;;;;;10412101;28;20087;-68
2022/04/09 11:51:28;;;;;;;2.80;1.70;;;;;;;;;;10403531;28;20132;-69
2022/04/09 11:56:31;;;;;;;2.22;1.67;;;;;;;;;;10399855;28;20315;-70
2022/04/09 12:01:36;;;;;;;1.92;1.73;;;;;;;;;;10403926;28;20493;-70
2022/04/09 12:06:41;;;;;;;5.57;2.05;;;;;;;;;;10404084;28;20413;-71
2022/04/09 12:11:44;;;;;;;1.60;1.50;;;;;;;;;;10403324;28;20037;-69
2022/04/09 12:16:47;;;;;;;4.43;2.00;;;;;;;;;;10386069;28;20046;-68
2022/04/09 12:21:52;;;;;;;4.22;1.70;;;;;;;;;;10384675;28;20437;-69
2022/04/09 12:26:57;;;;;;;3.70;1.45;;;;;;;;;;10402146;28;20544;-69
2022/04/09 12:32:14;;;;;;;3.40;1.60;;;;;;;;;;10405624;28;20033;-69
2022/04/09 12:37:19;;;;;;;3.15;1.77;;;;;;;;;;10385434;28;20071;-69
2022/04/09 12:42:30;;;;;;;2.97;1.70;;;;;;;;;;10398549;28;20037;-70
2022/04/09 12:47:32;;;;;;;2.33;1.45;;;;;;;;;;10402806;28;20208;-70
2022/04/09 12:52:37;;;;;;;2.63;1.70;;;;;;;;;;10399931;28;20043;-69
2022/04/09 12:57:41;;;;;;;2.88;1.35;;;;;;;;;;10378367;28;20405;-69
2022/04/09 13:02:43;;;;;;;;;;;;;;;;;;10401021;28;20113;-69
2022/04/09 13:07:48;;;;;;;3.00;1.20;;;;;;;;;;10403140;28;20199;-69
2022/04/09 13:12:52;;;;;;;2.30;1.38;;;;;;;;;;10398446;28;20121;-70
2022/04/09 13:17:55;;;;;;;4.40;1.33;;;;;;;;;;10396393;28;20041;-69
2022/04/09 13:23:00;;;;;;;1.35;1.20;;;;;;;;;;10380928;28;20041;-70
2022/04/09 13:28:03;;;;;;;1.70;1.05;;;;;;;;;;10383959;28;20099;-69
2022/04/09 13:33:07;;;;;;;4.00;1.70;;;;;;;;;;10403117;28;20647;-69
2022/04/09 13:38:11;;;;;;;3.10;1.27;;;;;;;;;;10397007;28;20535;-68
2022/04/09 13:43:15;;;;;;;1.73;0.60;;;;;;;;;;10396247;28;20044;-68
2022/04/09 13:48:20;;;;;;;2.67;1.30;;;;;;;;;;10402380;28;20053;-70
2022/04/09 13:53:24;;;;;;;5.07;1.40;;;;;;;;;;10396453;28;20453;-70
2022/04/09 13:58:27;;;;;;;2.08;1.13;;;;;;;;;;10400487;28;20048;-73
2022/04/09 14:03:30;;;;;;;1.60;0.83;;;;;;;;;;10380620;28;20048;-72
2022/04/09 14:08:34;;;;;;;3.77;1.17;;;;;;;;;;10396366;28;20120;-70
2022/04/09 14:13:37;;;;;;;4.95;1.70;;;;;;;;;;10377736;28;20091;-69
2022/04/09 14:18:40;;;;;;;1.83;1.20;;;;;;;;;;10377780;28;20088;-68
2022/04/09 14:23:44;;;;;;;1.13;0.93;;;;;;;;;;10394294;28;20030;-70
2022/04/09 14:28:48;;;;;;;0.73;0.73;;;;;;;;;;10372082;28;20077;-68
2022/04/09 14:33:51;;;;;;;1.83;1.08;;;;;;;;;;10397871;28;20033;-70
2022/04/09 14:38:55;;;;;;;1.53;1.10;;;;;;;;;;10398270;28;20564;-69
2022/04/09 14:43:58;;;;;;;5.60;1.10;;;;;;;;;;10375074;28;20127;-69
2022/04/09 14:49:01;;;;;;;3.60;1.33;;;;;;;;;;10401479;28;20077;-67
2022/04/09 14:54:05;;;;;;;3.93;1.43;;;;;;;;;;10392399;28;20051;-69
2022/04/09 14:59:09;;;;;;;1.60;1.50;;;;;;;;;;10396603;28;20100;-69
2022/04/09 15:04:12;;;;;;;4.13;1.60;;;;;;;;;;10398343;28;20041;-69
2022/04/09 15:09:16;;;;;;;3.80;1.20;;;;;;;;;;10378879;28;20052;-70
2022/04/09 15:14:19;;;;;;;3.15;1.20;;;;;;;;;;10396522;28;20037;-68
2022/04/09 15:19:22;;;;;;;3.20;1.73;;;;;;;;;;10387262;28;20383;-68
2022/04/09 15:24:27;;;;;;;2.40;0.98;;;;;;;;;;10386551;28;20045;-68
2022/04/09 15:29:31;;;;;;;4.57;1.80;;;;;;;;;;10399069;28;20451;-69
2022/04/09 15:34:38;;;;;;;1.77;0.82;;;;;;;;;;10386974;28;20448;-70
2022/04/09 15:39:42;;;;;;;1.83;1.10;;;;;;;;;;10403674;28;20381;-67
2022/04/09 15:44:47;;;;;;;6.50;1.88;;;;;;;;;;10384250;28;20060;-69
2022/04/09 15:49:49;;;;;;;2.88;1.10;;;;;;;;;;10374201;28;20463;-70
2022/04/09 15:54:54;;;;;;;1.73;1.38;;;;;;;;;;10405435;28;20053;-69
2022/04/09 15:59:57;;;;;;;1.30;0.85;;;;;;;;;;10402191;28;20037;-70
2022/04/09 16:05:00;;;;;;;3.15;1.20;;;;;;;;;;10387510;28;20048;-68
2022/04/09 16:10:05;;;;;;;0.45;0.45;;;;;;;;;;10407318;28;20052;-68
2022/04/09 16:15:11;;;;;;;2.92;0.93;;;;;;;;;;10402333;28;20202;-68
2022/04/09 16:20:16;;;;;;;2.28;0.93;;;;;;;;;;10402036;28;20049;-68
2022/04/09 16:25:21;;;;;;;3.50;1.25;;;;;;;;;;10402928;28;20030;-69
2022/04/09 16:30:25;;;;;;;1.85;0.57;;;;;;;;;;10411225;28;20113;-69
2022/04/09 16:35:28;;;;;;;3.45;1.35;;;;;;;;;;10414309;28;20037;-69
2022/04/09 16:40:47;;;;;;;3.63;1.17;;;;;;;;;;10445685;28;20033;-68
2022/04/09 16:45:50;;;;;;;0.95;0.70;;;;;;;;;;10423165;28;20044;-69
2022/04/09 16:50:53;;;;;;;4.00;0.95;;;;;;;;;;10390558;28;20048;-70
2022/04/09 16:56:01;;;;;;;4.65;1.45;;;;;;;;;;10389829;28;20053;-69
2022/04/09 17:01:04;;;;;;;1.48;1.17;;;;;;;;;;10388466;28;20401;-68
2022/04/09 17:06:08;;;;;;;3.35;1.02;;;;;;;;;;10387738;28;20038;-69
2022/04/09 17:11:12;;;;;;;2.77;0.93;;;;;;;;;;10400840;28;20045;-70
2022/04/09 17:16:16;;;;;;;2.50;1.08;;;;;;;;;;10388175;28;20052;-68
2022/04/09 17:21:19;;;;;;;6.32;1.55;;;;;;;;;;10400775;28;20072;-69
2022/04/09 17:26:24;;;;;;;4.00;1.15;;;;;;;;;;10403174;28;20030;-69
2022/04/09 17:31:27;;;;;;;;;;;;;;;;;;10401262;28;20045;-68
2022/04/09 17:36:30;;;;;;;3.92;0.95;;;;;;;;;;10386917;28;19997;-69
2022/04/09 17:41:35;;;;;;;3.53;1.05;;;;;;;;;;10403934;28;20041;-69
2022/04/09 17:46:38;;;;;;;7.47;1.83;;;;;;;;;;10405147;28;20171;-67
2022/04/09 17:51:42;;;;;;;1.13;0.65;;;;;;;;;;10414488;28;20048;-69
2022/04/09 17:56:49;;;;;;;4.20;1.10;;;;;;;;;;10412648;28;20049;-68
2022/04/09 18:01:57;;;;;;;2.97;0.98;;;;;;;;;;10397946;28;20029;-68
2022/04/09 18:07:01;;;;;;;4.80;1.55;;;;;;;;;;10381355;28;20042;-68
2022/04/09 18:12:08;;;;;;;0.32;0.22;;;;;;;;;;10403846;28;20091;-69
2022/04/09 18:17:11;;;;;;;4.22;0.93;;;;;;;;;;10399115;28;20137;-68
2022/04/09 18:22:15;;;;;;;1.73;1.13;;;;;;;;;;10394114;28;20058;-67
2022/04/09 18:27:20;;;;;;;4.70;1.50;;;;;;;;;;10394289;28;20049;-71
2022/04/09 18:32:24;;;;;;;3.25;1.60;;;;;;;;;;10392406;28;20618;-68
2022/04/09 18:37:28;;;;;;;6.05;1.40;;;;;;;;;;10377486;28;20033;-68
2022/04/09 18:42:32;;;;;;;;;;;;;;;;;;10394500;28;20118;-69
2022/04/09 18:47:40;;;;;;;3.67;1.33;;;;;;;;;;10395465;28;20019;-69
2022/04/09 18:52:44;;;;;;;1.90;1.15;;;;;;;;;;10399153;28;20057;-68
2022/04/09 18:57:47;;;;;;;6.10;1.40;;;;;;;;;;10407611;28;20122;-67
2022/04/09 19:02:52;;;;;;;4.13;1.40;;;;;;;;;;10408043;28;20033;-68
2022/04/09 19:07:56;;;;;;;4.03;0.98;;;;;;;;;;10402188;28;20037;-69
2022/04/09 19:12:59;;;;;;;3.13;1.67;;;;;;;;;;10405004;28;20033;-70
2022/04/09 19:18:04;;;;;;;7.00;1.92;;;;;;;;;;10401079;28;20093;-68
2022/04/09 19:23:07;;;;;;;3.80;1.13;;;;;;;;;;10386032;28;20049;-69
2022/04/09 19:28:11;;;;;;;;;;;;;;;;;;10405247;28;20064;-72
2022/04/09 19:33:16;;;;;;;7.30;1.33;;;;;;;;;;10406992;28;19927;-70
2022/04/09 19:38:20;;;;;;;1.43;0.90;;;;;;;;;;10399577;28;20119;-70
2022/04/09 19:43:23;;;;;;;2.42;1.50;;;;;;;;;;10406577;28;20072;-69
2022/04/09 19:48:28;;;;;;;3.60;1.67;;;;;;;;;;10386910;28;20061;-67
2022/04/09 19:53:31;;;;;;;2.77;1.20;;;;;;;;;;10395196;28;20458;-68
2022/04/09 19:58:34;;;;;;;4.93;1.50;;;;;;;;;;10400408;28;20045;-69
2022/04/09 20:03:39;;;;;;;2.35;1.08;;;;;;;;;;10404816;28;20064;-69
2022/04/09 20:08:42;;;;;;;3.80;1.90;;;;;;;;;;10408846;28;20378;-69
2022/04/09 20:13:46;;;;;;;12.50;2.90;;;;;;;;;;10408119;28;20560;-68
2022/04/09 20:18:52;;;;;;;3.72;1.23;;;;;;;;;;10410008;28;20071;-68
2022/04/09 20:23:55;;;;;;;1.67;0.85;;;;;;;;;;10403026;28;20037;-67
2022/04/09 20:28:58;;;;;;;3.67;1.70;;;;;;;;;;10402753;28;20052;-68
2022/04/09 20:34:03;;;;;;;0.83;0.63;;;;;;;;;;10402837;28;20033;-67
2022/04/09 20:39:06;;;;;;;5.13;0.97;;;;;;;;;;10406143;28;20128;-69
2022/04/09 20:44:09;;;;;;;3.37;1.67;;;;;;;;;;10382695;28;20045;-68
2022/04/09 20:49:14;;;;;;;3.03;1.40;;;;;;;;;;10402282;28;20528;-68
2022/04/09 20:54:18;;;;;;;1.67;1.23;;;;;;;;;;10386300;28;20037;-69
2022/04/09 20:59:21;;;;;;;1.80;1.40;;;;;;;;;;10379005;28;20087;-69
2022/04/09 21:04:28;;;;;;;1.97;1.17;;;;;;;;;;10404635;28;20067;-68
2022/04/09 21:09:31;;;;;;;2.83;1.40;;;;;;;;;;10381626;28;20409;-69
2022/04/09 21:14:34;;;;;;;2.93;0.97;;;;;;;;;;10396189;28;20038;-68
2022/04/09 21:19:40;;;;;;;1.27;0.60;;;;;;;;;;10381669;28;20431;-68
2022/04/09 21:24:43;;;;;;;1.87;1.00;;;;;;;;;;10387321;28;20037;-69
2022/04/09 21:29:46;;;;;;;6.53;1.77;;;;;;;;;;10395226;28;20038;-67
2022/04/09 21:34:50;;;;;;;7.60;1.70;;;;;;;;;;10381131;28;20486;-67
2022/04/09 21:39:54;;;;;;;1.00;0.73;;;;;;;;;;10397671;28;20042;-67
2022/04/09 21:44:58;;;;;;;0.93;0.60;;;;;;;;;;10384805;28;20037;-70
2022/04/09 21:50:04;;;;;;;1.77;1.13;;;;;;;;;;10397313;28;20041;-69
2022/04/09 21:55:08;;;;;;;2.80;1.40;;;;;;;;;;10381206;28;20112;-68
2022/04/09 22:00:14;;;;;;;6.07;2.47;;;;;;;;;;10380374;28;20057;-67
2022/04/09 22:05:19;;;;;;;1.87;1.17;;;;;;;;;;10397382;28;20033;-68
2022/04/09 22:10:22;;;;;;;1.70;0.95;;;;;;;;;;10396105;28;20438;-68
2022/04/09 22:15:26;;;;;;;2.80;1.02;;;;;;;;;;10395033;28;20171;-67
2022/04/09 22:20:33;;;;;;;1.87;0.87;;;;;;;;;;10379112;28;20098;-69
2022/04/09 22:25:36;;;;;;;3.60;1.83;;;;;;;;;;10398922;28;20075;-67
2022/04/09 22:30:39;;;;;;;2.90;1.53;;;;;;;;;;10400378;28;20045;-68
2022/04/09 22:35:44;;;;;;;5.80;1.97;;;;;;;;;;10417570;28;20048;-69
2022/04/09 22:40:47;;;;;;;4.97;2.10;;;;;;;;;;10381959;28;20068;-69
2022/04/09 22:45:51;;;;;;;5.43;1.97;;;;;;;;;;10380180;28;20477;-67
2022/04/09 22:50:56;;;;;;;2.03;1.03;;;;;;;;;;10393176;28;20037;-68
2022/04/09 22:55:59;;;;;;;4.50;1.80;;;;;;;;;;10388563;28;20037;-68
2022/04/09 23:01:02;;;;;;;3.63;1.57;;;;;;;;;;10382995;28;20037;-69
2022/04/09 23:06:07;;;;;;;8.60;2.90;;;;;;;;;;10396834;28;20366;-69
2022/04/09 23:11:10;;;;;;;3.70;1.70;;;;;;;;;;10395587;28;20045;-68
2022/04/09 23:16:14;;;;;;;2.22;1.08;;;;;;;;;;10395000;28;20034;-68
2022/04/09 23:21:19;;;;;;;5.03;1.77;;;;;;;;;;10397414;28;20393;-70
2022/04/09 23:26:22;;;;;;;5.83;2.20;;;;;;;;;;10394537;28;20339;-67
2022/04/09 23:31:26;;;;;;;1.30;1.00;;;;;;;;;;10378685;28;20076;-68
2022/04/09 23:36:31;;;;;;;7.80;1.80;;;;;;;;;;10375189;28;20568;-68
2022/04/09 23:41:33;;;;;;;4.60;1.77;;;;;;;;;;10405319;28;20075;-68
2022/04/09 23:46:36;;;;;;;4.10;1.60;;;;;;;;;;10387371;28;20083;-69
2022/04/09 23:51:40;;;;;;;1.10;0.70;;;;;;;;;;10404275;28;20069;-69
2022/04/09 23:56:43;;;;;;;;;;;;;;;;;;10401593;28;20045;-69
